Time;durP1;ratioP1;P1;durP2;ratioP2;P2;SDS_P1;SDS_P2;PMS_P1;PMS_P2;Temp;Humidity;BMP_temperature;BMP_pressure;BME280_temperature;BME280_humidity;BME280_pressure;Samples;Min_cycle;Max_cycle;Signal;HPM_P1;HPM_P2
2023/12/29 00:01:18;;;;;;;9.17;4.50;;;8.40;99.90;;;;;;5068492;28;20233;-67
2023/12/29 00:03:45;;;;;;;10.90;4.67;;;8.40;99.90;;;;;;5066333;28;20232;-66
2023/12/29 00:06:12;;;;;;;13.70;4.60;;;8.40;99.90;;;;;;5069585;28;20716;-66
2023/12/29 00:08:39;;;;;;;8.70;4.07;;;8.40;99.90;;;;;;5063477;28;20709;-66
2023/12/29 00:11:06;;;;;;;6.53;3.60;;;8.40;99.90;;;;;;5069365;28;20226;-67
2023/12/29 00:13:35;;;;;;;9.73;4.40;;;8.40;99.90;;;;;;5069819;28;20689;-66
2023/12/29 00:16:02;;;;;;;8.90;4.10;;;8.40;99.90;;;;;;5069981;28;20195;-66
2023/12/29 00:18:29;;;;;;;8.10;3.67;;;8.50;99.90;;;;;;5069154;28;20722;-65
2023/12/29 00:20:56;;;;;;;7.37;4.03;;;8.50;99.90;;;;;;5069981;28;20293;-67
2023/12/29 00:23:23;;;;;;;7.67;3.57;;;8.50;99.90;;;;;;5069002;28;20201;-66
2023/12/29 00:25:50;;;;;;;4.67;2.70;;;8.50;99.90;;;;;;5070163;28;20206;-67
2023/12/29 00:28:17;;;;;;;8.43;3.27;;;8.50;99.90;;;;;;5069917;28;20636;-66
2023/12/29 00:30:46;;;;;;;6.50;3.23;;;8.50;99.90;;;;;;5069164;28;20193;-68
2023/12/29 00:33:13;;;;;;;4.37;2.60;;;8.50;99.90;;;;;;5069313;28;20611;-66
2023/12/29 00:35:40;;;;;;;3.53;2.70;;;8.50;99.90;;;;;;5069340;28;20271;-67
2023/12/29 00:38:07;;;;;;;2.40;2.20;;;8.50;99.90;;;;;;5069181;28;20201;-67
2023/12/29 00:40:34;;;;;;;3.77;2.40;;;8.50;99.90;;;;;;5069339;28;20254;-66
2023/12/29 00:43:02;;;;;;;5.10;2.43;;;8.50;99.90;;;;;;5068376;28;20247;-66
2023/12/29 00:45:32;;;;;;;6.33;2.00;;;8.50;99.90;;;;;;5055697;28;20197;-66
2023/12/29 00:48:01;;;;;;;3.80;2.27;;;8.60;99.90;;;;;;5068349;28;20201;-67
2023/12/29 00:50:28;;;;;;;2.40;2.07;;;8.60;99.90;;;;;;5068218;28;20187;-66
2023/12/29 00:52:55;;;;;;;4.00;2.30;;;8.60;99.90;;;;;;5068011;28;20296;-67
2023/12/29 00:55:22;;;;;;;4.23;2.53;;;8.60;99.90;;;;;;5067192;28;20278;-67
2023/12/29 00:57:49;;;;;;;2.10;2.00;;;8.60;99.90;;;;;;5069779;28;20202;-67
2023/12/29 01:00:17;;;;;;;2.50;2.07;;;8.60;99.90;;;;;;5065417;28;20230;-66
2023/12/29 01:02:44;;;;;;;1.80;1.70;;;8.60;99.90;;;;;;5062301;28;20200;-67
2023/12/29 01:05:16;;;;;;;3.10;1.70;;;8.60;99.90;;;;;;5073336;28;20608;-67
2023/12/29 01:07:43;;;;;;;3.57;2.20;;;8.60;99.90;;;;;;5106656;28;20208;-67
2023/12/29 01:10:10;;;;;;;3.27;2.20;;;8.60;99.90;;;;;;5073798;28;20205;-67
2023/12/29 01:12:37;;;;;;;6.40;2.80;;;8.60;99.90;;;;;;5073327;28;20283;-66
2023/12/29 01:15:05;;;;;;;4.33;3.10;;;8.70;99.90;;;;;;5070540;28;20673;-66
2023/12/29 01:17:32;;;;;;;4.87;2.53;;;8.60;99.90;;;;;;5071100;28;20198;-66
2023/12/29 01:19:59;;;;;;;4.97;3.20;;;8.70;99.90;;;;;;5071350;28;20217;-67
2023/12/29 01:22:27;;;;;;;4.57;2.97;;;8.70;99.90;;;;;;5071400;28;20310;-67
2023/12/29 01:24:54;;;;;;;5.73;2.73;;;8.70;99.90;;;;;;5072836;28;20772;-66
2023/12/29 01:27:21;;;;;;;4.23;2.50;;;8.70;99.90;;;;;;5071647;28;20288;-66
2023/12/29 01:29:48;;;;;;;3.43;2.47;;;8.70;99.90;;;;;;5068729;28;20280;-66
2023/12/29 01:32:16;;;;;;;3.70;1.90;;;8.70;99.90;;;;;;5069334;28;20687;-66
2023/12/29 01:34:43;;;;;;;3.17;1.57;;;8.70;99.90;;;;;;5070898;28;20737;-66
2023/12/29 01:37:10;;;;;;;1.70;1.60;;;8.70;99.90;;;;;;5071413;28;20274;-67
2023/12/29 01:39:39;;;;;;;1.83;1.73;;;8.70;99.90;;;;;;5068624;28;20232;-66
2023/12/29 01:42:07;;;;;;;3.17;2.07;;;8.70;99.90;;;;;;5069789;28;20216;-67
2023/12/29 01:44:34;;;;;;;5.03;2.10;;;8.70;99.90;;;;;;5071831;28;20649;-65
2023/12/29 01:47:05;;;;;;;4.43;2.37;;;8.70;99.90;;;;;;5071118;28;20592;-66
2023/12/29 01:49:34;;;;;;;4.50;2.30;;;8.70;99.90;;;;;;5068133;28;20202;-67
2023/12/29 01:52:02;;;;;;;3.90;2.20;;;8.70;99.90;;;;;;5072327;28;20711;-66
2023/12/29 01:54:32;;;;;;;2.70;2.20;;;8.60;99.90;;;;;;5069283;28;20202;-67
2023/12/29 01:57:03;;;;;;;2.40;2.00;;;8.60;99.90;;;;;;5072193;28;20266;-66
2023/12/29 01:59:31;;;;;;;3.23;2.20;;;8.60;99.90;;;;;;5070854;28;20216;-66
2023/12/29 02:01:58;;;;;;;5.33;2.00;;;8.60;99.90;;;;;;5071084;28;20292;-65
2023/12/29 02:04:26;;;;;;;5.70;2.10;;;8.60;99.90;;;;;;5069197;28;20323;-67
2023/12/29 02:06:53;;;;;;;2.23;1.80;;;8.60;99.90;;;;;;5070868;28;20283;-67
2023/12/29 02:09:20;;;;;;;2.90;2.03;;;8.50;99.90;;;;;;5072086;28;20206;-66
2023/12/29 02:11:47;;;;;;;3.33;1.90;;;8.60;99.90;;;;;;5071546;28;20226;-67
2023/12/29 02:14:17;;;;;;;1.77;1.67;;;8.50;99.90;;;;;;5071873;28;20606;-66
2023/12/29 02:16:51;;;;;;;2.47;1.80;;;8.50;99.90;;;;;;5071156;28;20269;-67
2023/12/29 02:19:32;;;;;;;2.43;1.90;;;8.50;99.90;;;;;;5071683;28;20201;-66
2023/12/29 02:21:59;;;;;;;3.07;2.07;;;8.50;99.90;;;;;;5071441;28;20196;-66
2023/12/29 02:24:29;;;;;;;3.07;2.23;;;8.50;99.90;;;;;;5104362;28;20205;-66
2023/12/29 02:27:06;;;;;;;5.70;1.93;;;8.50;99.90;;;;;;5071963;28;20197;-67
2023/12/29 02:29:39;;;;;;;3.63;1.90;;;8.50;99.90;;;;;;5071702;28;20228;-67
2023/12/29 02:32:09;;;;;;;2.03;1.83;;;8.50;99.90;;;;;;5071157;28;20193;-67
2023/12/29 02:34:37;;;;;;;3.97;2.13;;;8.50;99.90;;;;;;5071559;28;20259;-67
2023/12/29 02:37:05;;;;;;;2.33;1.63;;;8.50;99.90;;;;;;5071970;28;20615;-67
2023/12/29 02:39:33;;;;;;;2.07;1.53;;;8.50;99.90;;;;;;5069979;28;20678;-67
2023/12/29 02:42:01;;;;;;;3.27;2.03;;;8.50;99.90;;;;;;5070883;28;20200;-66
2023/12/29 02:44:28;;;;;;;2.70;2.10;;;8.50;99.90;;;;;;5071190;28;20251;-67
2023/12/29 02:46:55;;;;;;;2.30;2.10;;;8.50;99.90;;;;;;5069716;28;20239;-66
2023/12/29 02:49:22;;;;;;;3.73;2.20;;;8.50;99.90;;;;;;5068675;28;20195;-67
2023/12/29 02:51:50;;;;;;;2.00;1.90;;;8.50;99.90;;;;;;5076386;28;20578;-65
2023/12/29 02:54:17;;;;;;;2.83;1.90;;;8.50;99.90;;;;;;5070490;28;20635;-66
2023/12/29 02:56:44;;;;;;;3.27;1.93;;;8.50;99.90;;;;;;5071697;28;20200;-67
2023/12/29 02:59:12;;;;;;;2.73;1.67;;;8.50;99.90;;;;;;5070904;28;20210;-67
2023/12/29 03:01:41;;;;;;;2.27;1.97;;;8.50;99.90;;;;;;5069454;28;20197;-66
2023/12/29 03:04:08;;;;;;;4.60;1.90;;;8.50;99.90;;;;;;5071493;28;20186;-67
2023/12/29 03:06:35;;;;;;;2.20;2.00;;;8.50;99.90;;;;;;5071365;28;20272;-67
2023/12/29 03:09:02;;;;;;;2.63;2.40;;;8.50;99.90;;;;;;5071055;28;20605;-67
2023/12/29 03:11:30;;;;;;;3.47;2.23;;;8.40;99.90;;;;;;5069284;28;20260;-66
2023/12/29 03:13:58;;;;;;;4.47;2.70;;;8.40;99.90;;;;;;5070956;28;20188;-66
2023/12/29 03:16:26;;;;;;;2.30;2.10;;;8.40;99.90;;;;;;5070737;28;20731;-68
2023/12/29 03:18:53;;;;;;;5.77;2.73;;;8.40;99.90;;;;;;5069950;28;20271;-66
2023/12/29 03:21:20;;;;;;;3.23;2.33;;;8.40;99.90;;;;;;5070256;28;20256;-66
2023/12/29 03:23:47;;;;;;;3.37;2.70;;;8.40;99.90;;;;;;5069196;28;20273;-66
2023/12/29 03:26:14;;;;;;;3.47;2.53;;;8.50;99.90;;;;;;5069269;28;20209;-66
2023/12/29 03:28:41;;;;;;;5.03;2.73;;;8.50;99.90;;;;;;5068939;28;20229;-66
2023/12/29 03:31:08;;;;;;;3.93;2.40;;;8.50;99.90;;;;;;5068572;28;20198;-66
2023/12/29 03:33:37;;;;;;;2.63;2.03;;;8.50;99.90;;;;;;5070140;28;20272;-68
2023/12/29 03:36:05;;;;;;;2.57;1.83;;;8.60;99.90;;;;;;5069806;28;20190;-66
2023/12/29 03:38:33;;;;;;;2.00;1.80;;;8.60;99.90;;;;;;5070746;28;20233;-66
2023/12/29 03:41:01;;;;;;;2.13;1.93;;;8.50;99.90;;;;;;5070028;28;20209;-66
2023/12/29 03:43:28;;;;;;;3.70;2.00;;;8.50;99.90;;;;;;5070115;28;20206;-67
2023/12/29 03:45:55;;;;;;;6.50;2.70;;;8.60;99.90;;;;;;5070074;28;20240;-68
2023/12/29 03:48:22;;;;;;;3.43;2.40;;;8.60;99.90;;;;;;5070330;28;20730;-66
2023/12/29 03:50:51;;;;;;;3.70;2.57;;;8.60;99.90;;;;;;5069679;28;20193;-67
2023/12/29 03:53:19;;;;;;;6.10;2.80;;;8.60;99.90;;;;;;5057985;28;20198;-66
2023/12/29 03:55:46;;;;;;;4.07;2.77;;;8.60;99.90;;;;;;5070277;28;20197;-66
2023/12/29 03:58:13;;;;;;;7.17;2.97;;;8.60;99.90;;;;;;5070664;28;20205;-66
2023/12/29 04:00:42;;;;;;;3.23;2.47;;;8.60;99.90;;;;;;5068259;28;20667;-66
2023/12/29 04:03:10;;;;;;;5.23;2.67;;;8.60;99.90;;;;;;5067998;28;20199;-66
2023/12/29 04:05:37;;;;;;;5.37;2.80;;;8.60;99.90;;;;;;5067918;28;20620;-66
2023/12/29 04:08:07;;;;;;;3.23;2.30;;;8.60;99.90;;;;;;5069250;28;20288;-67
2023/12/29 04:10:34;;;;;;;6.40;2.63;;;8.50;99.90;;;;;;5069984;28;20199;-67
2023/12/29 04:13:01;;;;;;;4.40;2.10;;;8.50;99.90;;;;;;5070726;28;20278;-66
2023/12/29 04:15:28;;;;;;;2.73;2.00;;;8.50;99.90;;;;;;5069203;28;20189;-67
2023/12/29 04:17:55;;;;;;;5.03;2.10;;;8.50;99.90;;;;;;5069876;28;20614;-66
2023/12/29 04:20:23;;;;;;;6.20;2.03;;;8.50;99.90;;;;;;5068549;28;20221;-67
2023/12/29 04:22:50;;;;;;;3.47;1.97;;;8.50;99.90;;;;;;5069704;28;20225;-67
2023/12/29 04:25:18;;;;;;;2.07;1.80;;;8.50;99.90;;;;;;5068579;28;20206;-67
2023/12/29 04:27:45;;;;;;;2.27;1.60;;;8.50;99.90;;;;;;5070083;28;20205;-65
2023/12/29 04:30:12;;;;;;;3.17;1.63;;;8.50;99.90;;;;;;5069146;28;20204;-67
2023/12/29 04:32:39;;;;;;;2.40;1.43;;;8.50;99.90;;;;;;5069660;28;20235;-67
2023/12/29 04:35:07;;;;;;;2.60;2.17;;;8.50;99.90;;;;;;5067516;28;20440;-66
2023/12/29 04:37:34;;;;;;;1.67;1.57;;;8.50;99.90;;;;;;5069136;28;20212;-67
2023/12/29 04:40:01;;;;;;;1.70;1.60;;;8.50;99.90;;;;;;5068688;28;20616;-66
2023/12/29 04:42:30;;;;;;;2.30;1.60;;;8.50;99.90;;;;;;5069688;28;20558;-66
2023/12/29 04:44:57;;;;;;;2.73;1.80;;;8.50;99.90;;;;;;5064395;28;20657;-66
2023/12/29 04:47:24;;;;;;;6.80;1.73;;;8.60;99.90;;;;;;5067734;28;20207;-66
2023/12/29 04:49:51;;;;;;;1.70;1.60;;;8.60;99.90;;;;;;5064775;28;20190;-66
2023/12/29 04:52:18;;;;;;;1.57;1.47;;;8.60;99.90;;;;;;5069521;28;20531;-66
2023/12/29 04:54:45;;;;;;;2.60;1.70;;;8.60;99.90;;;;;;5069388;28;20293;-67
2023/12/29 04:57:12;;;;;;;2.93;1.50;;;8.60;99.90;;;;;;5069698;28;20197;-66
2023/12/29 04:59:41;;;;;;;2.30;1.50;;;8.60;99.90;;;;;;5069417;28;20212;-67
2023/12/29 05:02:08;;;;;;;1.83;1.40;;;8.60;99.90;;;;;;5066471;28;20407;-66
2023/12/29 05:04:35;;;;;;;4.57;2.23;;;8.60;99.90;;;;;;5069397;28;20195;-67
2023/12/29 05:07:02;;;;;;;3.53;2.00;;;8.50;99.90;;;;;;5068232;28;20257;-67
2023/12/29 05:09:29;;;;;;;2.10;1.90;;;8.50;99.90;;;;;;5067163;28;20614;-66
2023/12/29 05:11:56;;;;;;;3.07;1.80;;;8.50;99.90;;;;;;5068826;28;20222;-67
2023/12/29 05:14:23;;;;;;;4.30;1.70;;;8.50;99.90;;;;;;5071457;28;20217;-66
2023/12/29 05:16:51;;;;;;;2.70;1.60;;;8.60;99.90;;;;;;5065769;28;20232;-66
2023/12/29 05:19:18;;;;;;;2.57;1.70;;;8.60;99.90;;;;;;5063173;28;20305;-67
2023/12/29 05:21:45;;;;;;;2.70;1.83;;;8.60;99.90;;;;;;5068215;28;20242;-66
2023/12/29 05:24:12;;;;;;;1.97;1.77;;;8.60;99.90;;;;;;5069582;28;20202;-66
2023/12/29 05:26:39;;;;;;;3.97;1.67;;;8.60;99.90;;;;;;5067846;28;20205;-66
2023/12/29 05:29:06;;;;;;;1.97;1.80;;;8.60;99.90;;;;;;5069202;28;20193;-65
2023/12/29 05:31:33;;;;;;;3.70;1.90;;;8.60;99.90;;;;;;5067180;28;20571;-67
2023/12/29 05:34:02;;;;;;;2.97;1.80;;;8.60;99.90;;;;;;5067606;28;20205;-67
2023/12/29 05:36:29;;;;;;;6.00;2.07;;;8.60;99.90;;;;;;5068593;28;20189;-67
2023/12/29 05:38:57;;;;;;;2.27;1.70;;;8.70;99.90;;;;;;5070488;28;20284;-66
2023/12/29 05:41:24;;;;;;;2.50;1.60;;;8.60;99.90;;;;;;5069540;28;20615;-66
2023/12/29 05:43:51;;;;;;;2.13;1.50;;;8.60;99.90;;;;;;5069319;28;20208;-66
2023/12/29 05:46:18;;;;;;;2.10;1.50;;;8.60;99.90;;;;;;5068717;28;20574;-67
2023/12/29 05:48:47;;;;;;;3.17;1.40;;;8.60;99.90;;;;;;5070781;28;20244;-67
2023/12/29 05:51:16;;;;;;;2.20;1.70;;;8.60;99.90;;;;;;5071767;28;20696;-66
2023/12/29 05:53:43;;;;;;;2.37;1.33;;;8.70;99.90;;;;;;5072036;28;20189;-66
2023/12/29 05:56:12;;;;;;;1.97;1.70;;;8.70;99.90;;;;;;5072516;28;20198;-66
2023/12/29 05:58:41;;;;;;;3.07;1.83;;;8.70;99.90;;;;;;5061283;28;20498;-66
2023/12/29 06:01:08;;;;;;;2.20;1.60;;;8.70;99.90;;;;;;5071416;28;20706;-68
2023/12/29 06:03:36;;;;;;;1.73;1.63;;;8.70;99.90;;;;;;5072058;28;20320;-67
2023/12/29 06:06:03;;;;;;;2.30;1.80;;;8.70;99.90;;;;;;5070807;28;20660;-67
2023/12/29 06:08:32;;;;;;;2.83;1.80;;;8.70;99.90;;;;;;5072462;28;20219;-68
2023/12/29 06:10:59;;;;;;;2.47;1.70;;;8.70;99.90;;;;;;5072357;28;20286;-67
2023/12/29 06:13:26;;;;;;;2.80;1.97;;;8.80;99.90;;;;;;5070836;28;20217;-66
2023/12/29 06:15:53;;;;;;;1.70;1.60;;;8.80;99.90;;;;;;5071910;28;20228;-66
2023/12/29 06:18:20;;;;;;;1.87;1.37;;;8.80;99.90;;;;;;5071509;28;20209;-67
2023/12/29 06:20:47;;;;;;;3.47;1.80;;;8.80;99.90;;;;;;5072190;28;20215;-67
2023/12/29 06:23:14;;;;;;;1.50;1.40;;;8.80;99.90;;;;;;5071307;28;20188;-67
2023/12/29 06:25:42;;;;;;;1.47;1.37;;;8.80;99.90;;;;;;5072040;28;20200;-67
2023/12/29 06:28:09;;;;;;;2.13;1.40;;;8.80;99.90;;;;;;5071866;28;20193;-67
2023/12/29 06:30:36;;;;;;;3.13;1.83;;;8.80;99.90;;;;;;5071338;28;20236;-67
2023/12/29 06:33:04;;;;;;;2.73;1.70;;;8.90;99.90;;;;;;5077104;28;20520;-67
2023/12/29 06:35:31;;;;;;;4.90;2.10;;;8.90;99.90;;;;;;5077498;28;20198;-67
2023/12/29 06:37:58;;;;;;;3.20;1.87;;;8.90;99.90;;;;;;5071473;28;20221;-67
2023/12/29 06:40:25;;;;;;;1.77;1.57;;;8.90;99.90;;;;;;5062605;28;20224;-66
2023/12/29 06:42:53;;;;;;;4.30;2.10;;;8.80;99.90;;;;;;5075324;28;20592;-66
2023/12/29 06:45:21;;;;;;;3.10;1.90;;;8.80;99.90;;;;;;5070672;28;20604;-67
2023/12/29 06:47:48;;;;;;;4.80;2.30;;;8.80;99.90;;;;;;5071263;28;20199;-66
2023/12/29 06:50:15;;;;;;;7.13;2.40;;;8.80;99.90;;;;;;5065289;28;20670;-66
2023/12/29 06:52:42;;;;;;;4.00;2.40;;;8.80;99.90;;;;;;5071579;28;20291;-66
2023/12/29 06:55:11;;;;;;;3.13;2.00;;;8.80;99.90;;;;;;5060508;28;20626;-66
2023/12/29 06:57:39;;;;;;;4.43;2.10;;;8.80;99.90;;;;;;5071818;28;20208;-66
2023/12/29 07:00:11;;;;;;;4.80;2.67;;;8.80;99.90;;;;;;5072427;28;20211;-66
2023/12/29 07:02:39;;;;;;;7.60;3.17;;;8.80;99.90;;;;;;5071160;28;20192;-67
2023/12/29 07:05:07;;;;;;;10.07;3.13;;;8.80;99.90;;;;;;5070352;28;20723;-68
2023/12/29 07:07:35;;;;;;;10.30;3.17;;;8.80;99.90;;;;;;5071397;28;20649;-66
2023/12/29 07:10:03;;;;;;;5.17;2.53;;;8.80;99.90;;;;;;5072045;28;20609;-66
2023/12/29 07:12:30;;;;;;;6.60;2.80;;;8.80;99.90;;;;;;5070997;28;20668;-66
2023/12/29 07:14:57;;;;;;;5.40;2.40;;;8.80;99.90;;;;;;5069123;28;20204;-66
2023/12/29 07:17:26;;;;;;;2.87;2.10;;;8.80;99.90;;;;;;5070224;28;20198;-66
2023/12/29 07:19:53;;;;;;;3.23;2.00;;;8.80;99.90;;;;;;5069663;28;20218;-66
2023/12/29 07:22:20;;;;;;;3.80;1.80;;;8.90;99.90;;;;;;5069958;28;20205;-66
2023/12/29 07:24:47;;;;;;;1.50;1.40;;;8.90;99.90;;;;;;5070422;28;20206;-66
2023/12/29 07:27:14;;;;;;;1.63;1.30;;;8.90;99.90;;;;;;5071514;28;20196;-67
2023/12/29 07:29:41;;;;;;;2.20;1.53;;;9.00;99.90;;;;;;5070971;28;20649;-66
2023/12/29 07:32:08;;;;;;;2.70;1.80;;;9.00;99.90;;;;;;5069711;28;20193;-67
2023/12/29 07:34:37;;;;;;;1.97;1.40;;;9.00;99.90;;;;;;5070848;28;20203;-67
2023/12/29 07:37:04;;;;;;;3.00;1.50;;;9.00;99.90;;;;;;5069421;28;20199;-67
2023/12/29 07:39:31;;;;;;;3.83;1.80;;;9.10;99.90;;;;;;5070032;28;20266;-66
2023/12/29 07:41:58;;;;;;;2.43;1.83;;;9.10;99.90;;;;;;5058911;28;20217;-67
2023/12/29 07:44:32;;;;;;;2.13;1.63;;;9.10;99.90;;;;;;5068942;28;20212;-67
2023/12/29 07:46:59;;;;;;;1.40;1.13;;;9.10;99.90;;;;;;5069482;28;20233;-67
2023/12/29 07:49:26;;;;;;;1.50;1.40;;;9.10;99.90;;;;;;5070402;28;20225;-67
2023/12/29 07:51:59;;;;;;;1.97;1.70;;;9.10;99.90;;;;;;5069919;28;20200;-66
2023/12/29 07:54:26;;;;;;;1.90;1.80;;;9.10;99.90;;;;;;5070398;28;20196;-67
2023/12/29 07:56:53;;;;;;;2.50;1.70;;;9.10;99.90;;;;;;5070432;28;20668;-67
2023/12/29 07:59:20;;;;;;;4.30;1.80;;;9.10;99.90;;;;;;5066557;28;20192;-66
2023/12/29 08:01:47;;;;;;;5.37;1.97;;;9.10;99.90;;;;;;5068936;28;20698;-67
2023/12/29 08:04:14;;;;;;;2.93;1.83;;;9.10;99.90;;;;;;5069918;28;20186;-67
2023/12/29 08:06:41;;;;;;;3.10;2.00;;;9.10;99.90;;;;;;5069785;28;20206;-68
2023/12/29 08:09:10;;;;;;;4.63;1.93;;;9.10;99.90;;;;;;5070436;28;20230;-67
2023/12/29 08:11:37;;;;;;;2.37;1.70;;;9.10;99.90;;;;;;5068003;28;20261;-66
2023/12/29 08:14:08;;;;;;;3.83;1.53;;;9.10;99.90;;;;;;5069920;28;20238;-66
2023/12/29 08:16:39;;;;;;;2.50;2.23;;;9.10;99.90;;;;;;5069948;28;20629;-67
2023/12/29 08:19:07;;;;;;;2.97;1.70;;;9.10;99.90;;;;;;5070037;28;20203;-67
2023/12/29 08:21:34;;;;;;;2.77;1.83;;;9.20;99.90;;;;;;5068843;28;20317;-67
2023/12/29 08:24:04;;;;;;;3.07;2.10;;;9.20;99.90;;;;;;5069691;28;20253;-67
2023/12/29 08:26:32;;;;;;;3.63;1.70;;;9.20;99.90;;;;;;5069008;28;20214;-67
2023/12/29 08:28:59;;;;;;;2.13;1.60;;;9.20;99.90;;;;;;5069435;28;20616;-67
2023/12/29 08:31:28;;;;;;;4.47;1.93;;;9.20;99.90;;;;;;5069703;28;20817;-66
2023/12/29 08:33:55;;;;;;;2.50;1.90;;;9.20;99.90;;;;;;5067130;28;20203;-67
2023/12/29 08:36:22;;;;;;;2.63;1.70;;;9.20;99.90;;;;;;5069827;28;20568;-66
2023/12/29 08:38:49;;;;;;;3.10;1.93;;;9.20;99.90;;;;;;5068284;28;20238;-67
2023/12/29 08:41:20;;;;;;;1.70;1.60;;;9.20;99.90;;;;;;5068891;28;20621;-66
2023/12/29 08:43:48;;;;;;;2.00;1.70;;;9.30;99.90;;;;;;5046940;28;20643;-67
2023/12/29 08:46:15;;;;;;;4.97;1.90;;;9.30;99.90;;;;;;5067483;28;20667;-68
2023/12/29 08:48:42;;;;;;;6.33;1.60;;;9.30;99.90;;;;;;5061439;28;20455;-67
2023/12/29 08:51:09;;;;;;;1.60;1.50;;;9.30;99.90;;;;;;5068341;28;20216;-66
2023/12/29 08:53:36;;;;;;;1.87;1.67;;;9.30;99.90;;;;;;5067365;28;20255;-67
2023/12/29 08:56:03;;;;;;;2.40;1.60;;;9.30;99.90;;;;;;5066414;28;20226;-68
2023/12/29 08:58:32;;;;;;;2.47;1.80;;;9.40;99.90;;;;;;5064774;28;20604;-67
2023/12/29 09:01:00;;;;;;;3.93;1.53;;;9.40;99.90;;;;;;5067544;28;20193;-67
2023/12/29 09:03:27;;;;;;;2.70;1.97;;;9.40;99.90;;;;;;5067865;28;20639;-67
2023/12/29 09:05:56;;;;;;;2.53;1.90;;;9.40;99.90;;;;;;5065067;28;20618;-65
2023/12/29 09:33:33;;;;;;;4.30;2.13;;;8.90;99.90;;;;;;5111983;27;20293;-66
2023/12/29 09:36:00;;;;;;;3.60;1.80;;;8.80;99.90;;;;;;5094070;28;20211;-67
2023/12/29 09:38:27;;;;;;;2.50;1.80;;;8.80;99.90;;;;;;5089434;28;20239;-67
2023/12/29 09:40:56;;;;;;;3.60;1.83;;;8.80;99.90;;;;;;5099391;28;20194;-67
2023/12/29 09:43:23;;;;;;;2.07;1.63;;;8.90;99.90;;;;;;5104252;28;20192;-67
2023/12/29 09:45:53;;;;;;;2.00;1.60;;;9.00;99.90;;;;;;5095161;28;20721;-67
2023/12/29 09:48:25;;;;;;;3.27;1.80;;;9.10;99.90;;;;;;5098052;28;20665;-67
2023/12/29 09:50:54;;;;;;;1.90;1.63;;;9.20;99.90;;;;;;5091478;28;20198;-67
2023/12/29 09:53:22;;;;;;;1.40;1.30;;;9.20;99.90;;;;;;5087794;28;20271;-66
2023/12/29 09:55:52;;;;;;;1.90;1.50;;;9.30;99.90;;;;;;5086500;28;20296;-66
2023/12/29 09:58:25;;;;;;;3.23;1.63;;;9.30;99.90;;;;;;5095451;28;20202;-67
2023/12/29 10:00:52;;;;;;;1.80;1.70;;;9.30;99.90;;;;;;5087596;28;20287;-66
2023/12/29 10:03:19;;;;;;;2.80;1.60;;;9.40;99.90;;;;;;5098793;28;20206;-66
2023/12/29 10:05:51;;;;;;;1.77;1.67;;;9.40;99.90;;;;;;5097399;28;20278;-67
2023/12/29 10:08:22;;;;;;;2.13;1.70;;;9.50;99.90;;;;;;5092989;28;20199;-67
2023/12/29 10:10:50;;;;;;;2.53;1.63;;;9.50;99.90;;;;;;5089970;28;20298;-66
2023/12/29 10:13:19;;;;;;;1.70;1.60;;;9.50;99.90;;;;;;5089449;28;20306;-67
2023/12/29 10:15:52;;;;;;;1.67;1.40;;;9.50;99.90;;;;;;5093229;28;20276;-70
2023/12/29 10:18:23;;;;;;;1.20;1.10;;;9.60;99.90;;;;;;5090095;28;20312;-67
2023/12/29 10:20:58;;;;;;;1.53;1.30;;;9.60;99.90;;;;;;5095034;28;20198;-67
2023/12/29 10:23:32;;;;;;;1.93;1.73;;;9.60;99.90;;;;;;5089665;28;20294;-68
2023/12/29 10:25:59;;;;;;;3.13;1.40;;;9.60;99.90;;;;;;5087284;28;20191;-67
2023/12/29 10:28:26;;;;;;;4.40;1.40;;;9.70;99.90;;;;;;5085252;28;20195;-67
2023/12/29 10:30:53;;;;;;;1.50;1.40;;;9.70;99.90;;;;;;5095263;28;20340;-67
2023/12/29 10:33:22;;;;;;;1.60;1.50;;;9.70;99.90;;;;;;5087372;28;20268;-67
2023/12/29 10:36:02;;;;;;;2.37;1.40;;;9.70;99.90;;;;;;5087927;28;20642;-67
2023/12/29 10:38:30;;;;;;;3.53;1.67;;;9.70;99.90;;;;;;5092903;28;20190;-67
2023/12/29 10:41:12;;;;;;;2.93;1.90;;;9.70;99.90;;;;;;5102111;28;20360;-67
2023/12/29 10:43:40;;;;;;;4.10;1.87;;;9.70;99.90;;;;;;5088784;28;20826;-66
2023/12/29 10:46:08;;;;;;;2.47;1.87;;;9.80;99.90;;;;;;5084449;28;20199;-66
2023/12/29 10:48:36;;;;;;;3.23;1.90;;;9.80;99.90;;;;;;5086920;28;20235;-66
2023/12/29 10:51:03;;;;;;;2.90;1.97;;;9.80;99.90;;;;;;5078761;28;20253;-68
2023/12/29 10:53:33;;;;;;;2.33;1.57;;;9.70;99.90;;;;;;5087839;28;20225;-67
2023/12/29 10:56:00;;;;;;;2.00;1.80;;;9.80;99.90;;;;;;5068629;28;20724;-68
2023/12/29 10:58:29;;;;;;;2.33;2.00;;;9.80;99.90;;;;;;5068774;28;20216;-66
2023/12/29 11:00:56;;;;;;;4.57;2.30;;;9.90;99.90;;;;;;5079825;28;20263;-67
2023/12/29 11:03:26;;;;;;;2.93;1.90;;;9.90;99.90;;;;;;5081180;28;20617;-67
2023/12/29 11:06:00;;;;;;;2.70;1.43;;;9.90;99.90;;;;;;5075470;28;20185;-68
2023/12/29 11:08:36;;;;;;;7.03;1.40;;;10.00;99.90;;;;;;5073072;28;20278;-67
2023/12/29 11:11:04;;;;;;;2.33;1.80;;;10.10;99.90;;;;;;5085998;28;20299;-67
2023/12/29 11:13:32;;;;;;;3.00;1.53;;;10.20;99.90;;;;;;5057202;28;20218;-66
2023/12/29 11:16:01;;;;;;;2.53;1.50;;;10.40;99.90;;;;;;5061837;28;20204;-65
2023/12/29 11:18:29;;;;;;;2.50;1.40;;;10.60;99.90;;;;;;5056106;28;20575;-67
2023/12/29 11:20:59;;;;;;;3.23;1.63;;;10.60;99.90;;;;;;5075060;28;20200;-67
2023/12/29 11:23:26;;;;;;;2.10;1.20;;;10.70;99.90;;;;;;5065276;28;20279;-67
2023/12/29 11:28:55;;;;;;;1.30;1.20;;;10.80;99.90;;;;;;5146543;27;20281;-65
2023/12/29 11:31:23;;;;;;;4.03;1.50;;;10.80;99.90;;;;;;5130026;27;20266;-68
2023/12/29 11:33:58;;;;;;;3.73;1.23;;;10.80;99.90;;;;;;5122576;27;20604;-66
2023/12/29 11:36:30;;;;;;;3.77;1.50;;;10.80;99.90;;;;;;5121103;27;20275;-66
2023/12/29 11:39:02;;;;;;;2.67;1.37;;;10.80;99.90;;;;;;5126770;27;20227;-66
2023/12/29 11:41:40;;;;;;;1.60;1.43;;;10.80;99.90;;;;;;5119082;27;20480;-65
2023/12/29 11:44:08;;;;;;;1.20;1.10;;;10.80;99.90;;;;;;5122417;27;20718;-66
2023/12/29 11:46:36;;;;;;;3.53;1.10;;;10.80;99.90;;;;;;5123054;27;20654;-66
2023/12/29 11:49:04;;;;;;;5.10;1.80;;;10.70;99.90;;;;;;5125268;27;20203;-67
2023/12/29 11:51:36;;;;;;;2.00;1.30;;;10.70;99.90;;;;;;5126071;27;20240;-65
2023/12/29 11:54:04;;;;;;;3.10;1.47;;;10.70;99.90;;;;;;5125498;28;20237;-66
2023/12/29 11:56:37;;;;;;;2.20;1.30;;;10.70;99.90;;;;;;5119911;27;20199;-66
2023/12/29 11:59:16;;;;;;;2.50;1.30;;;10.70;99.90;;;;;;5112523;28;20212;-66
2023/12/29 12:01:44;;;;;;;4.47;1.70;;;10.70;99.90;;;;;;5121998;27;20833;-65
2023/12/29 12:04:45;;;;;;;2.70;1.30;;;10.70;99.90;;;;;;5123435;27;20192;-65
2023/12/29 12:07:17;;;;;;;1.73;1.10;;;10.70;99.90;;;;;;5077533;28;20295;-66
2023/12/29 12:09:44;;;;;;;2.50;1.50;;;10.60;99.90;;;;;;5079453;28;20267;-65
2023/12/29 12:12:11;;;;;;;1.40;1.30;;;10.20;99.90;;;;;;5105285;27;20267;-66
2023/12/29 12:14:53;;;;;;;3.17;1.40;;;10.70;99.90;;;;;;5117448;28;20410;-65
2023/12/29 12:17:31;;;;;;;4.10;1.40;;;10.80;99.90;;;;;;5125646;27;20192;-66
2023/12/29 12:20:01;;;;;;;3.53;1.30;;;10.80;99.90;;;;;;5125943;28;20547;-67
2023/12/29 12:22:32;;;;;;;4.30;1.40;;;10.80;99.90;;;;;;5120476;28;20303;-64
2023/12/29 12:24:59;;;;;;;2.67;1.57;;;10.80;99.90;;;;;;5125425;28;20266;-65
2023/12/29 12:27:27;;;;;;;2.33;1.43;;;10.80;99.90;;;;;;5133260;27;20272;-65
2023/12/29 12:29:59;;;;;;;4.03;1.63;;;10.80;99.90;;;;;;5121585;28;20211;-66
2023/12/29 12:32:27;;;;;;;6.13;1.60;;;10.70;99.90;;;;;;5120748;27;20551;-66
2023/12/29 12:34:54;;;;;;;4.03;1.63;;;10.70;99.90;;;;;;5125036;27;20195;-66
2023/12/29 12:37:22;;;;;;;3.70;1.43;;;10.70;99.90;;;;;;5123788;28;20192;-66
2023/12/29 12:39:49;;;;;;;3.23;1.63;;;10.70;99.90;;;;;;5114399;28;20279;-66
2023/12/29 12:42:17;;;;;;;2.20;1.23;;;10.70;99.90;;;;;;5109814;28;20202;-66
2023/12/29 12:44:51;;;;;;;5.83;1.40;;;10.70;99.90;;;;;;5110852;28;20279;-66
2023/12/29 12:47:26;;;;;;;4.73;1.30;;;10.70;99.90;;;;;;5111184;27;20232;-66
2023/12/29 12:49:54;;;;;;;5.63;1.33;;;10.70;99.90;;;;;;5108934;28;20218;-66
2023/12/29 12:52:21;;;;;;;5.73;1.80;;;10.70;99.90;;;;;;5109849;27;20199;-66
2023/12/29 12:54:49;;;;;;;3.97;1.47;;;10.70;99.90;;;;;;5105053;28;20207;-65
2023/12/29 12:57:20;;;;;;;4.43;1.20;;;10.70;99.90;;;;;;5110850;27;20184;-65
2023/12/29 12:59:48;;;;;;;2.90;1.23;;;10.70;99.90;;;;;;5117060;27;20733;-65
2023/12/29 13:02:16;;;;;;;2.33;1.13;;;10.70;99.90;;;;;;5105653;27;20562;-66
2023/12/29 13:04:44;;;;;;;1.80;1.20;;;10.70;99.90;;;;;;5107800;28;20206;-66
2023/12/29 13:07:15;;;;;;;4.07;1.00;;;10.70;99.90;;;;;;5110184;27;20195;-65
2023/12/29 13:09:42;;;;;;;2.43;1.10;;;10.70;99.90;;;;;;5110708;27;20247;-66
2023/12/29 13:12:11;;;;;;;2.40;1.40;;;10.70;99.90;;;;;;5107806;27;20604;-66
2023/12/29 13:14:38;;;;;;;2.87;1.40;;;10.70;99.90;;;;;;5110031;27;20636;-64
2023/12/29 13:17:10;;;;;;;2.73;1.43;;;10.70;99.90;;;;;;5108639;27;20642;-65
2023/12/29 13:19:38;;;;;;;5.17;1.10;;;10.60;99.90;;;;;;5111397;27;20549;-66
2023/12/29 13:22:09;;;;;;;2.10;1.37;;;10.60;99.90;;;;;;5110030;28;20195;-65
2023/12/29 13:24:43;;;;;;;3.30;1.23;;;10.60;99.90;;;;;;5111650;27;20275;-66
2023/12/29 13:27:11;;;;;;;1.40;1.30;;;10.60;99.90;;;;;;5111408;27;20306;-66
2023/12/29 13:29:39;;;;;;;2.10;1.30;;;10.50;99.90;;;;;;5099947;28;20647;-66